sensor_id;sensor_type;location;lat;lon;timestamp;P1;durP1;ratioP1;P2;durP2;ratioP2
76589;SDS011;65471;55.908;37.880;2023-02-28T00:01:25;13.68;;;7.95;;
76589;SDS011;65471;55.908;37.880;2023-02-28T00:03:53;9.88;;;7.47;;
76589;SDS011;65471;55.908;37.880;2023-02-28T00:06:20;13.90;;;8.77;;
76589;SDS011;65471;55.908;37.880;2023-02-28T00:08:47;14.77;;;9.15;;
76589;SDS011;65471;55.908;37.880;2023-02-28T00:11:15;13.38;;;8.10;;
76589;SDS011;65471;55.908;37.880;2023-02-28T00:13:43;20.02;;;9.50;;
76589;SDS011;65471;55.908;37.880;2023-02-28T00:16:16;9.45;;;7.05;;
76589;SDS011;65471;55.908;37.880;2023-02-28T00:18:45;17.52;;;8.95;;
76589;SDS011;65471;55.908;37.880;2023-02-28T00:21:14;14.60;;;10.40;;
76589;SDS011;65471;55.908;37.880;2023-02-28T00:23:42;19.17;;;9.48;;
76589;SDS011;65471;55.908;37.880;2023-02-28T00:26:10;16.75;;;9.32;;
76589;SDS011;65471;55.908;37.880;2023-02-28T00:28:37;8.98;;;7.18;;
76589;SDS011;65471;55.908;37.880;2023-02-28T00:31:03;11.43;;;7.65;;
76589;SDS011;65471;55.908;37.880;2023-02-28T00:33:31;14.00;;;9.18;;
76589;SDS011;65471;55.908;37.880;2023-02-28T00:36:02;16.30;;;9.40;;
76589;SDS011;65471;55.908;37.880;2023-02-28T00:41:02;18.25;;;5.43;;
76589;SDS011;65471;55.908;37.880;2023-02-28T00:43:33;11.68;;;8.20;;
76589;SDS011;65471;55.908;37.880;2023-02-28T00:46:01;10.15;;;5.07;;
76589;SDS011;65471;55.908;37.880;2023-02-28T00:48:29;13.13;;;8.57;;
76589;SDS011;65471;55.908;37.880;2023-02-28T00:50:56;6.63;;;5.40;;
76589;SDS011;65471;55.908;37.880;2023-02-28T00:53:23;6.40;;;5.88;;
76589;SDS011;65471;55.908;37.880;2023-02-28T00:55:50;6.97;;;6.25;;
76589;SDS011;65471;55.908;37.880;2023-02-28T00:58:17;12.15;;;8.50;;
76589;SDS011;65471;55.908;37.880;2023-02-28T01:00:44;12.52;;;7.50;;
76589;SDS011;65471;55.908;37.880;2023-02-28T01:03:18;11.65;;;6.95;;
76589;SDS011;65471;55.908;37.880;2023-02-28T01:05:46;7.93;;;6.70;;
76589;SDS011;65471;55.908;37.880;2023-02-28T01:08:13;9.75;;;7.63;;
76589;SDS011;65471;55.908;37.880;2023-02-28T01:10:41;11.05;;;7.47;;
76589;SDS011;65471;55.908;37.880;2023-02-28T01:13:08;10.75;;;8.27;;
76589;SDS011;65471;55.908;37.880;2023-02-28T01:15:35;9.43;;;7.85;;
76589;SDS011;65471;55.908;37.880;2023-02-28T01:18:02;8.88;;;7.35;;
76589;SDS011;65471;55.908;37.880;2023-02-28T01:20:29;10.25;;;7.43;;
76589;SDS011;65471;55.908;37.880;2023-02-28T01:22:55;10.20;;;7.03;;
76589;SDS011;65471;55.908;37.880;2023-02-28T01:25:22;18.65;;;8.65;;
76589;SDS011;65471;55.908;37.880;2023-02-28T01:27:49;16.05;;;9.13;;
76589;SDS011;65471;55.908;37.880;2023-02-28T01:30:16;13.95;;;9.50;;
76589;SDS011;65471;55.908;37.880;2023-02-28T01:32:43;16.13;;;8.98;;
76589;SDS011;65471;55.908;37.880;2023-02-28T01:35:10;13.40;;;8.73;;
76589;SDS011;65471;55.908;37.880;2023-02-28T01:37:36;11.32;;;7.90;;
76589;SDS011;65471;55.908;37.880;2023-02-28T01:40:03;11.88;;;8.25;;
76589;SDS011;65471;55.908;37.880;2023-02-28T01:42:31;14.63;;;8.88;;
76589;SDS011;65471;55.908;37.880;2023-02-28T01:47:52;16.50;;;8.23;;
76589;SDS011;65471;55.908;37.880;2023-02-28T01:50:26;13.52;;;8.10;;
76589;SDS011;65471;55.908;37.880;2023-02-28T01:52:56;6.22;;;3.83;;
76589;SDS011;65471;55.908;37.880;2023-02-28T01:55:26;14.18;;;6.65;;
76589;SDS011;65471;55.908;37.880;2023-02-28T01:57:56;13.60;;;8.00;;
76589;SDS011;65471;55.908;37.880;2023-02-28T02:00:25;17.35;;;8.38;;
76589;SDS011;65471;55.908;37.880;2023-02-28T02:02:54;11.23;;;8.13;;
76589;SDS011;65471;55.908;37.880;2023-02-28T02:05:25;15.32;;;7.80;;
76589;SDS011;65471;55.908;37.880;2023-02-28T02:07:54;14.02;;;8.65;;
76589;SDS011;65471;55.908;37.880;2023-02-28T02:10:30;19.67;;;8.63;;
76589;SDS011;65471;55.908;37.880;2023-02-28T02:18:54;20.08;;;8.32;;
76589;SDS011;65471;55.908;37.880;2023-02-28T02:29:31;11.55;;;7.15;;
76589;SDS011;65471;55.908;37.880;2023-02-28T02:35:34;14.32;;;8.88;;
76589;SDS011;65471;55.908;37.880;2023-02-28T02:48:59;11.43;;;7.60;;
76589;SDS011;65471;55.908;37.880;2023-02-28T02:51:30;9.20;;;6.40;;
76589;SDS011;65471;55.908;37.880;2023-02-28T02:54:04;15.27;;;9.75;;
76589;SDS011;65471;55.908;37.880;2023-02-28T02:56:35;11.88;;;7.40;;
76589;SDS011;65471;55.908;37.880;2023-02-28T02:59:03;12.45;;;7.07;;
76589;SDS011;65471;55.908;37.880;2023-02-28T03:01:33;13.88;;;8.45;;
76589;SDS011;65471;55.908;37.880;2023-02-28T03:04:06;11.55;;;7.20;;
76589;SDS011;65471;55.908;37.880;2023-02-28T03:06:35;10.85;;;7.70;;
76589;SDS011;65471;55.908;37.880;2023-02-28T03:09:02;12.43;;;8.00;;
76589;SDS011;65471;55.908;37.880;2023-02-28T03:11:30;11.68;;;7.35;;
76589;SDS011;65471;55.908;37.880;2023-02-28T03:23:12;15.68;;;6.97;;
76589;SDS011;65471;55.908;37.880;2023-02-28T03:25:54;13.02;;;8.43;;
76589;SDS011;65471;55.908;37.880;2023-02-28T03:34:10;11.60;;;7.72;;
76589;SDS011;65471;55.908;37.880;2023-02-28T03:36:44;8.35;;;5.57;;
76589;SDS011;65471;55.908;37.880;2023-02-28T03:39:19;5.03;;;4.53;;
76589;SDS011;65471;55.908;37.880;2023-02-28T03:41:56;7.82;;;5.55;;
76589;SDS011;65471;55.908;37.880;2023-02-28T03:44:30;7.30;;;6.47;;
76589;SDS011;65471;55.908;37.880;2023-02-28T03:47:02;11.55;;;8.43;;
76589;SDS011;65471;55.908;37.880;2023-02-28T03:49:35;7.65;;;5.53;;
76589;SDS011;65471;55.908;37.880;2023-02-28T03:52:09;9.65;;;7.18;;
76589;SDS011;65471;55.908;37.880;2023-02-28T03:54:43;5.85;;;4.82;;
76589;SDS011;65471;55.908;37.880;2023-02-28T03:58:01;5.75;;;4.43;;
76589;SDS011;65471;55.908;37.880;2023-02-28T04:00:08;8.73;;;6.07;;
76589;SDS011;65471;55.908;37.880;2023-02-28T04:02:43;7.18;;;5.88;;
76589;SDS011;65471;55.908;37.880;2023-02-28T04:05:10;8.57;;;4.88;;
76589;SDS011;65471;55.908;37.880;2023-02-28T04:07:37;8.50;;;6.50;;
76589;SDS011;65471;55.908;37.880;2023-02-28T04:10:04;4.30;;;3.90;;
76589;SDS011;65471;55.908;37.880;2023-02-28T04:12:31;7.80;;;4.88;;
76589;SDS011;65471;55.908;37.880;2023-02-28T04:14:58;7.72;;;6.20;;
76589;SDS011;65471;55.908;37.880;2023-02-28T04:17:25;15.52;;;6.65;;
76589;SDS011;65471;55.908;37.880;2023-02-28T04:19:52;7.18;;;6.10;;
76589;SDS011;65471;55.908;37.880;2023-02-28T04:22:20;8.17;;;5.93;;
76589;SDS011;65471;55.908;37.880;2023-02-28T04:24:47;5.47;;;4.40;;
76589;SDS011;65471;55.908;37.880;2023-02-28T04:27:13;7.95;;;6.63;;
76589;SDS011;65471;55.908;37.880;2023-02-28T04:29:42;12.25;;;5.57;;
76589;SDS011;65471;55.908;37.880;2023-02-28T04:32:11;7.43;;;5.80;;
76589;SDS011;65471;55.908;37.880;2023-02-28T04:34:38;12.25;;;5.22;;
76589;SDS011;65471;55.908;37.880;2023-02-28T04:37:05;10.98;;;6.30;;
76589;SDS011;65471;55.908;37.880;2023-02-28T04:39:39;10.70;;;5.60;;
76589;SDS011;65471;55.908;37.880;2023-02-28T04:42:06;5.70;;;4.78;;
76589;SDS011;65471;55.908;37.880;2023-02-28T04:44:33;7.03;;;5.88;;
76589;SDS011;65471;55.908;37.880;2023-02-28T04:47:00;6.88;;;5.53;;
76589;SDS011;65471;55.908;37.880;2023-02-28T04:49:27;9.40;;;5.90;;
76589;SDS011;65471;55.908;37.880;2023-02-28T04:51:54;8.77;;;7.32;;
76589;SDS011;65471;55.908;37.880;2023-02-28T04:54:22;9.40;;;5.63;;
76589;SDS011;65471;55.908;37.880;2023-02-28T04:56:48;11.85;;;8.25;;
76589;SDS011;65471;55.908;37.880;2023-02-28T04:59:16;4.10;;;3.80;;
76589;SDS011;65471;55.908;37.880;2023-02-28T05:01:45;5.85;;;4.18;;
76589;SDS011;65471;55.908;37.880;2023-02-28T05:04:13;7.45;;;5.30;;
76589;SDS011;65471;55.908;37.880;2023-02-28T05:06:40;9.50;;;5.60;;
76589;SDS011;65471;55.908;37.880;2023-02-28T05:09:07;7.72;;;5.57;;
76589;SDS011;65471;55.908;37.880;2023-02-28T05:11:34;6.43;;;5.88;;
76589;SDS011;65471;55.908;37.880;2023-02-28T05:14:02;5.90;;;5.07;;
76589;SDS011;65471;55.908;37.880;2023-02-28T05:16:35;3.53;;;3.22;;
76589;SDS011;65471;55.908;37.880;2023-02-28T05:19:02;8.20;;;5.50;;
76589;SDS011;65471;55.908;37.880;2023-02-28T05:21:36;8.00;;;6.45;;
76589;SDS011;65471;55.908;37.880;2023-02-28T05:24:04;7.63;;;5.15;;
76589;SDS011;65471;55.908;37.880;2023-02-28T05:26:36;6.25;;;5.70;;
76589;SDS011;65471;55.908;37.880;2023-02-28T05:29:05;7.22;;;5.20;;
76589;SDS011;65471;55.908;37.880;2023-02-28T05:31:32;7.40;;;5.68;;
76589;SDS011;65471;55.908;37.880;2023-02-28T05:33:59;8.63;;;5.10;;
76589;SDS011;65471;55.908;37.880;2023-02-28T05:36:26;6.97;;;5.88;;
76589;SDS011;65471;55.908;37.880;2023-02-28T05:38:53;7.60;;;4.75;;
76589;SDS011;65471;55.908;37.880;2023-02-28T05:41:20;5.63;;;5.03;;
76589;SDS011;65471;55.908;37.880;2023-02-28T05:43:47;4.60;;;4.20;;
76589;SDS011;65471;55.908;37.880;2023-02-28T05:46:15;5.07;;;4.60;;
76589;SDS011;65471;55.908;37.880;2023-02-28T05:48:42;5.32;;;4.82;;
76589;SDS011;65471;55.908;37.880;2023-02-28T05:51:12;5.30;;;4.40;;
76589;SDS011;65471;55.908;37.880;2023-02-28T05:53:39;2.70;;;2.53;;
76589;SDS011;65471;55.908;37.880;2023-02-28T05:56:06;5.05;;;4.55;;
76589;SDS011;65471;55.908;37.880;2023-02-28T05:58:33;4.72;;;4.25;;
76589;SDS011;65471;55.908;37.880;2023-02-28T06:01:11;6.43;;;4.65;;
76589;SDS011;65471;55.908;37.880;2023-02-28T06:03:51;4.47;;;4.07;;
76589;SDS011;65471;55.908;37.880;2023-02-28T06:06:18;3.50;;;3.25;;
76589;SDS011;65471;55.908;37.880;2023-02-28T06:08:45;4.70;;;4.40;;
76589;SDS011;65471;55.908;37.880;2023-02-28T06:11:12;3.53;;;3.28;;
76589;SDS011;65471;55.908;37.880;2023-02-28T06:13:39;4.47;;;3.67;;
76589;SDS011;65471;55.908;37.880;2023-02-28T06:16:08;7.60;;;5.00;;
76589;SDS011;65471;55.908;37.880;2023-02-28T06:18:37;3.30;;;3.10;;
76589;SDS011;65471;55.908;37.880;2023-02-28T06:21:04;4.70;;;4.32;;
76589;SDS011;65471;55.908;37.880;2023-02-28T06:23:31;7.60;;;4.63;;
76589;SDS011;65471;55.908;37.880;2023-02-28T06:25:58;3.72;;;3.40;;
76589;SDS011;65471;55.908;37.880;2023-02-28T06:28:25;5.63;;;4.97;;
76589;SDS011;65471;55.908;37.880;2023-02-28T06:30:52;7.63;;;4.25;;
76589;SDS011;65471;55.908;37.880;2023-02-28T06:33:19;6.68;;;3.20;;
76589;SDS011;65471;55.908;37.880;2023-02-28T06:35:46;5.28;;;4.53;;
76589;SDS011;65471;55.908;37.880;2023-02-28T06:38:16;5.40;;;3.92;;
76589;SDS011;65471;55.908;37.880;2023-02-28T06:40:44;5.90;;;4.77;;
76589;SDS011;65471;55.908;37.880;2023-02-28T06:43:11;11.43;;;4.40;;
76589;SDS011;65471;55.908;37.880;2023-02-28T06:45:43;5.68;;;4.80;;
76589;SDS011;65471;55.908;37.880;2023-02-28T06:48:10;4.88;;;3.25;;
76589;SDS011;65471;55.908;37.880;2023-02-28T06:50:37;5.15;;;4.47;;
76589;SDS011;65471;55.908;37.880;2023-02-28T06:53:04;8.52;;;4.88;;
76589;SDS011;65471;55.908;37.880;2023-02-28T06:55:31;4.10;;;3.22;;
76589;SDS011;65471;55.908;37.880;2023-02-28T06:57:58;7.97;;;4.45;;
76589;SDS011;65471;55.908;37.880;2023-02-28T07:00:25;6.20;;;4.07;;
76589;SDS011;65471;55.908;37.880;2023-02-28T07:02:52;4.13;;;3.83;;
76589;SDS011;65471;55.908;37.880;2023-02-28T07:05:20;5.78;;;4.78;;
76589;SDS011;65471;55.908;37.880;2023-02-28T07:07:47;9.48;;;5.05;;
76589;SDS011;65471;55.908;37.880;2023-02-28T07:10:13;5.13;;;4.53;;
76589;SDS011;65471;55.908;37.880;2023-02-28T07:12:45;4.95;;;4.53;;
76589;SDS011;65471;55.908;37.880;2023-02-28T07:15:12;6.90;;;4.15;;
76589;SDS011;65471;55.908;37.880;2023-02-28T07:17:39;11.57;;;4.28;;
76589;SDS011;65471;55.908;37.880;2023-02-28T07:20:06;6.90;;;5.05;;
76589;SDS011;65471;55.908;37.880;2023-02-28T07:22:33;5.63;;;4.38;;
76589;SDS011;65471;55.908;37.880;2023-02-28T07:25:00;7.55;;;4.45;;
76589;SDS011;65471;55.908;37.880;2023-02-28T07:27:28;4.03;;;3.63;;
76589;SDS011;65471;55.908;37.880;2023-02-28T07:29:55;11.85;;;4.50;;
76589;SDS011;65471;55.908;37.880;2023-02-28T07:32:22;8.75;;;4.43;;
76589;SDS011;65471;55.908;37.880;2023-02-28T07:34:49;4.28;;;3.90;;
76589;SDS011;65471;55.908;37.880;2023-02-28T07:37:19;7.80;;;4.72;;
76589;SDS011;65471;55.908;37.880;2023-02-28T07:39:46;8.82;;;5.00;;
76589;SDS011;65471;55.908;37.880;2023-02-28T07:42:13;4.70;;;4.30;;
76589;SDS011;65471;55.908;37.880;2023-02-28T07:44:40;4.50;;;3.67;;
76589;SDS011;65471;55.908;37.880;2023-02-28T07:47:07;7.68;;;5.68;;
76589;SDS011;65471;55.908;37.880;2023-02-28T07:49:37;4.43;;;4.03;;
76589;SDS011;65471;55.908;37.880;2023-02-28T07:52:06;8.30;;;4.78;;
76589;SDS011;65471;55.908;37.880;2023-02-28T07:54:33;5.90;;;5.28;;
76589;SDS011;65471;55.908;37.880;2023-02-28T07:57:00;4.53;;;4.22;;
76589;SDS011;65471;55.908;37.880;2023-02-28T07:59:27;5.70;;;4.68;;
76589;SDS011;65471;55.908;37.880;2023-02-28T08:01:57;16.58;;;5.05;;
76589;SDS011;65471;55.908;37.880;2023-02-28T08:04:25;4.33;;;3.93;;
76589;SDS011;65471;55.908;37.880;2023-02-28T08:06:52;7.45;;;4.57;;
76589;SDS011;65471;55.908;37.880;2023-02-28T08:09:19;5.90;;;5.38;;
76589;SDS011;65471;55.908;37.880;2023-02-28T08:11:46;5.78;;;5.22;;
76589;SDS011;65471;55.908;37.880;2023-02-28T08:14:13;6.20;;;3.55;;
76589;SDS011;65471;55.908;37.880;2023-02-28T08:16:40;6.82;;;5.07;;
76589;SDS011;65471;55.908;37.880;2023-02-28T08:19:09;4.50;;;4.10;;
76589;SDS011;65471;55.908;37.880;2023-02-28T08:21:35;5.28;;;4.78;;
76589;SDS011;65471;55.908;37.880;2023-02-28T08:24:02;8.73;;;5.45;;
76589;SDS011;65471;55.908;37.880;2023-02-28T08:26:29;9.80;;;4.72;;
76589;SDS011;65471;55.908;37.880;2023-02-28T08:28:56;6.40;;;5.78;;
76589;SDS011;65471;55.908;37.880;2023-02-28T08:31:26;4.93;;;4.60;;
76589;SDS011;65471;55.908;37.880;2023-02-28T08:33:53;6.70;;;5.30;;
76589;SDS011;65471;55.908;37.880;2023-02-28T08:36:23;7.07;;;5.30;;
76589;SDS011;65471;55.908;37.880;2023-02-28T08:38:50;9.63;;;5.25;;
76589;SDS011;65471;55.908;37.880;2023-02-28T08:41:17;7.07;;;5.00;;
76589;SDS011;65471;55.908;37.880;2023-02-28T08:43:44;11.70;;;6.15;;
76589;SDS011;65471;55.908;37.880;2023-02-28T08:46:11;11.60;;;4.53;;
76589;SDS011;65471;55.908;37.880;2023-02-28T08:48:40;6.20;;;5.13;;
76589;SDS011;65471;55.908;37.880;2023-02-28T08:51:08;8.63;;;6.50;;
76589;SDS011;65471;55.908;37.880;2023-02-28T08:53:38;5.80;;;5.20;;
76589;SDS011;65471;55.908;37.880;2023-02-28T08:56:06;13.13;;;6.00;;
76589;SDS011;65471;55.908;37.880;2023-02-28T08:58:35;8.13;;;5.07;;
76589;SDS011;65471;55.908;37.880;2023-02-28T09:01:14;10.30;;;5.03;;
76589;SDS011;65471;55.908;37.880;2023-02-28T09:03:43;5.22;;;4.72;;
76589;SDS011;65471;55.908;37.880;2023-02-28T09:06:13;6.22;;;5.63;;
76589;SDS011;65471;55.908;37.880;2023-02-28T09:08:41;9.10;;;6.35;;
76589;SDS011;65471;55.908;37.880;2023-02-28T09:11:09;13.68;;;6.03;;
76589;SDS011;65471;55.908;37.880;2023-02-28T09:13:36;12.27;;;6.53;;
76589;SDS011;65471;55.908;37.880;2023-02-28T09:16:05;9.98;;;5.93;;
76589;SDS011;65471;55.908;37.880;2023-02-28T09:18:33;5.13;;;4.72;;
76589;SDS011;65471;55.908;37.880;2023-02-28T09:21:04;9.15;;;5.20;;
76589;SDS011;65471;55.908;37.880;2023-02-28T09:23:32;5.70;;;5.30;;
76589;SDS011;65471;55.908;37.880;2023-02-28T09:25:59;6.18;;;5.57;;
76589;SDS011;65471;55.908;37.880;2023-02-28T09:28:26;8.32;;;5.97;;
76589;SDS011;65471;55.908;37.880;2023-02-28T09:30:53;9.00;;;5.18;;
76589;SDS011;65471;55.908;37.880;2023-02-28T09:33:21;5.40;;;4.47;;
76589;SDS011;65471;55.908;37.880;2023-02-28T09:35:48;4.88;;;4.30;;
76589;SDS011;65471;55.908;37.880;2023-02-28T09:38:16;6.15;;;5.30;;
76589;SDS011;65471;55.908;37.880;2023-02-28T09:40:49;12.10;;;4.95;;
76589;SDS011;65471;55.908;37.880;2023-02-28T09:43:20;4.95;;;4.55;;
76589;SDS011;65471;55.908;37.880;2023-02-28T09:45:53;5.10;;;4.63;;
76589;SDS011;65471;55.908;37.880;2023-02-28T09:48:28;7.85;;;4.40;;
76589;SDS011;65471;55.908;37.880;2023-02-28T09:51:11;3.85;;;3.53;;
76589;SDS011;65471;55.908;37.880;2023-02-28T09:53:39;9.95;;;5.43;;
76589;SDS011;65471;55.908;37.880;2023-02-28T09:58:45;6.22;;;4.75;;
76589;SDS011;65471;55.908;37.880;2023-02-28T10:01:24;12.32;;;4.82;;
76589;SDS011;65471;55.908;37.880;2023-02-28T10:04:41;6.68;;;5.70;;
76589;SDS011;65471;55.908;37.880;2023-02-28T10:10:24;6.50;;;4.68;;
76589;SDS011;65471;55.908;37.880;2023-02-28T10:13:03;10.10;;;4.35;;
76589;SDS011;65471;55.908;37.880;2023-02-28T10:15:33;5.38;;;4.95;;
76589;SDS011;65471;55.908;37.880;2023-02-28T10:18:03;4.50;;;4.10;;
76589;SDS011;65471;55.908;37.880;2023-02-28T10:20:36;4.03;;;3.72;;
76589;SDS011;65471;55.908;37.880;2023-02-28T10:26:08;8.52;;;4.05;;
76589;SDS011;65471;55.908;37.880;2023-02-28T10:28:55;5.75;;;4.47;;
76589;SDS011;65471;55.908;37.880;2023-02-28T10:31:22;4.43;;;4.03;;
76589;SDS011;65471;55.908;37.880;2023-02-28T10:34:03;4.25;;;3.95;;
76589;SDS011;65471;55.908;37.880;2023-02-28T10:36:35;8.70;;;4.95;;
76589;SDS011;65471;55.908;37.880;2023-02-28T10:42:21;4.70;;;4.40;;
76589;SDS011;65471;55.908;37.880;2023-02-28T10:50:51;6.25;;;5.00;;
76589;SDS011;65471;55.908;37.880;2023-02-28T10:58:26;5.13;;;4.47;;
76589;SDS011;65471;55.908;37.880;2023-02-28T11:00:54;7.68;;;5.25;;
76589;SDS011;65471;55.908;37.880;2023-02-28T11:03:36;5.05;;;3.50;;
76589;SDS011;65471;55.908;37.880;2023-02-28T11:06:06;7.15;;;3.78;;
76589;SDS011;65471;55.908;37.880;2023-02-28T11:08:46;10.00;;;5.25;;
76589;SDS011;65471;55.908;37.880;2023-02-28T11:11:17;5.90;;;5.32;;
76589;SDS011;65471;55.908;37.880;2023-02-28T11:13:45;6.00;;;4.75;;
76589;SDS011;65471;55.908;37.880;2023-02-28T11:16:16;4.47;;;4.07;;
76589;SDS011;65471;55.908;37.880;2023-02-28T11:18:46;4.57;;;4.18;;
76589;SDS011;65471;55.908;37.880;2023-02-28T11:21:32;7.63;;;5.30;;
76589;SDS011;65471;55.908;37.880;2023-02-28T11:26:51;6.63;;;5.43;;
76589;SDS011;65471;55.908;37.880;2023-02-28T11:29:23;5.97;;;4.53;;
76589;SDS011;65471;55.908;37.880;2023-02-28T11:34:40;10.65;;;6.65;;
76589;SDS011;65471;55.908;37.880;2023-02-28T11:37:12;8.18;;;5.93;;
76589;SDS011;65471;55.908;37.880;2023-02-28T11:39:44;6.53;;;5.40;;
76589;SDS011;65471;55.908;37.880;2023-02-28T11:47:55;5.25;;;4.72;;
76589;SDS011;65471;55.908;37.880;2023-02-28T11:56:17;11.30;;;6.43;;
76589;SDS011;65471;55.908;37.880;2023-02-28T11:58:42;6.60;;;5.45;;
76589;SDS011;65471;55.908;37.880;2023-02-28T12:07:00;9.40;;;6.25;;
76589;SDS011;65471;55.908;37.880;2023-02-28T12:12:38;5.07;;;4.68;;
76589;SDS011;65471;55.908;37.880;2023-02-28T12:16:13;7.13;;;5.28;;
76589;SDS011;65471;55.908;37.880;2023-02-28T12:26:41;5.60;;;5.10;;
76589;SDS011;65471;55.908;37.880;2023-02-28T12:29:13;8.15;;;5.03;;
76589;SDS011;65471;55.908;37.880;2023-02-28T12:32:04;7.05;;;5.53;;
76589;SDS011;65471;55.908;37.880;2023-02-28T12:34:37;6.35;;;5.68;;
76589;SDS011;65471;55.908;37.880;2023-02-28T12:37:10;8.57;;;5.32;;
76589;SDS011;65471;55.908;37.880;2023-02-28T12:40:05;4.22;;;3.83;;
76589;SDS011;65471;55.908;37.880;2023-02-28T12:42:39;4.45;;;3.47;;
76589;SDS011;65471;55.908;37.880;2023-02-28T12:45:15;7.22;;;5.65;;
76589;SDS011;65471;55.908;37.880;2023-02-28T12:47:48;3.50;;;3.13;;
76589;SDS011;65471;55.908;37.880;2023-02-28T12:50:22;8.25;;;4.97;;
76589;SDS011;65471;55.908;37.880;2023-02-28T12:52:53;8.25;;;4.65;;
76589;SDS011;65471;55.908;37.880;2023-02-28T12:55:36;14.27;;;4.15;;
76589;SDS011;65471;55.908;37.880;2023-02-28T13:09:27;7.82;;;4.28;;
76589;SDS011;65471;55.908;37.880;2023-02-28T13:11:56;6.05;;;5.45;;
76589;SDS011;65471;55.908;37.880;2023-02-28T13:19:37;4.90;;;4.50;;
76589;SDS011;65471;55.908;37.880;2023-02-28T13:22:16;6.47;;;5.40;;
76589;SDS011;65471;55.908;37.880;2023-02-28T13:24:48;5.43;;;4.90;;
76589;SDS011;65471;55.908;37.880;2023-02-28T13:29:51;6.03;;;4.28;;
76589;SDS011;65471;55.908;37.880;2023-02-28T13:39:47;9.90;;;5.55;;
76589;SDS011;65471;55.908;37.880;2023-02-28T13:42:36;6.68;;;4.75;;
76589;SDS011;65471;55.908;37.880;2023-02-28T13:45:23;5.55;;;5.05;;
76589;SDS011;65471;55.908;37.880;2023-02-28T13:47:55;6.05;;;5.32;;
76589;SDS011;65471;55.908;37.880;2023-02-28T14:04:14;9.23;;;6.07;;
76589;SDS011;65471;55.908;37.880;2023-02-28T14:07:06;6.53;;;5.55;;
76589;SDS011;65471;55.908;37.880;2023-02-28T14:09:41;3.85;;;3.53;;
76589;SDS011;65471;55.908;37.880;2023-02-28T14:15:39;4.20;;;3.90;;
76589;SDS011;65471;55.908;37.880;2023-02-28T14:18:29;7.93;;;5.45;;
76589;SDS011;65471;55.908;37.880;2023-02-28T14:21:09;7.90;;;4.13;;
76589;SDS011;65471;55.908;37.880;2023-02-28T14:26:19;5.45;;;4.95;;
76589;SDS011;65471;55.908;37.880;2023-02-28T14:37:24;6.20;;;5.15;;
76589;SDS011;65471;55.908;37.880;2023-02-28T14:39:54;5.80;;;5.28;;
76589;SDS011;65471;55.908;37.880;2023-02-28T14:45:17;5.20;;;4.72;;
76589;SDS011;65471;55.908;37.880;2023-02-28T14:47:49;6.22;;;4.75;;
76589;SDS011;65471;55.908;37.880;2023-02-28T14:50:22;8.73;;;5.53;;
76589;SDS011;65471;55.908;37.880;2023-02-28T14:52:51;6.20;;;5.70;;
76589;SDS011;65471;55.908;37.880;2023-02-28T14:55:23;6.30;;;4.78;;
76589;SDS011;65471;55.908;37.880;2023-02-28T14:57:54;9.68;;;4.22;;
76589;SDS011;65471;55.908;37.880;2023-02-28T15:00:24;5.88;;;4.97;;
76589;SDS011;65471;55.908;37.880;2023-02-28T15:02:56;8.07;;;6.03;;
76589;SDS011;65471;55.908;37.880;2023-02-28T15:08:00;6.93;;;5.28;;
76589;SDS011;65471;55.908;37.880;2023-02-28T15:10:31;9.73;;;5.78;;
76589;SDS011;65471;55.908;37.880;2023-02-28T15:13:02;10.25;;;6.43;;
76589;SDS011;65471;55.908;37.880;2023-02-28T15:19:02;5.80;;;5.32;;
76589;SDS011;65471;55.908;37.880;2023-02-28T15:21:32;15.93;;;6.75;;
76589;SDS011;65471;55.908;37.880;2023-02-28T15:26:58;10.10;;;6.13;;
76589;SDS011;65471;55.908;37.880;2023-02-28T15:29:29;6.40;;;5.13;;
76589;SDS011;65471;55.908;37.880;2023-02-28T15:34:39;8.55;;;5.53;;
76589;SDS011;65471;55.908;37.880;2023-02-28T15:42:41;5.50;;;5.00;;
76589;SDS011;65471;55.908;37.880;2023-02-28T15:48:14;4.85;;;3.88;;
76589;SDS011;65471;55.908;37.880;2023-02-28T15:50:54;5.32;;;4.93;;
76589;SDS011;65471;55.908;37.880;2023-02-28T15:53:24;5.70;;;5.10;;
76589;SDS011;65471;55.908;37.880;2023-02-28T15:55:56;8.13;;;4.95;;
76589;SDS011;65471;55.908;37.880;2023-02-28T15:58:27;6.95;;;5.57;;
76589;SDS011;65471;55.908;37.880;2023-02-28T16:01:05;10.70;;;5.18;;
76589;SDS011;65471;55.908;37.880;2023-02-28T16:03:48;4.50;;;4.10;;
76589;SDS011;65471;55.908;37.880;2023-02-28T16:08:50;2.97;;;2.78;;
76589;SDS011;65471;55.908;37.880;2023-02-28T16:11:17;5.45;;;4.95;;
76589;SDS011;65471;55.908;37.880;2023-02-28T16:13:46;9.55;;;4.72;;
76589;SDS011;65471;55.908;37.880;2023-02-28T16:16:17;5.30;;;4.25;;
76589;SDS011;65471;55.908;37.880;2023-02-28T16:18:45;5.18;;;4.88;;
76589;SDS011;65471;55.908;37.880;2023-02-28T16:21:12;15.07;;;5.05;;
76589;SDS011;65471;55.908;37.880;2023-02-28T16:23:39;8.88;;;6.75;;
76589;SDS011;65471;55.908;37.880;2023-02-28T16:26:06;4.35;;;4.05;;
76589;SDS011;65471;55.908;37.880;2023-02-28T16:28:35;5.80;;;5.30;;
76589;SDS011;65471;55.908;37.880;2023-02-28T16:31:05;6.05;;;4.85;;
76589;SDS011;65471;55.908;37.880;2023-02-28T16:33:33;5.07;;;4.75;;
76589;SDS011;65471;55.908;37.880;2023-02-28T16:36:00;6.50;;;5.03;;
76589;SDS011;65471;55.908;37.880;2023-02-28T16:38:28;5.00;;;4.50;;
76589;SDS011;65471;55.908;37.880;2023-02-28T16:40:55;5.72;;;4.60;;
76589;SDS011;65471;55.908;37.880;2023-02-28T16:43:25;7.50;;;4.97;;
76589;SDS011;65471;55.908;37.880;2023-02-28T16:45:56;4.85;;;4.45;;
76589;SDS011;65471;55.908;37.880;2023-02-28T16:48:27;8.68;;;5.28;;
76589;SDS011;65471;55.908;37.880;2023-02-28T16:50:57;5.13;;;4.72;;
76589;SDS011;65471;55.908;37.880;2023-02-28T16:53:23;11.23;;;6.20;;
76589;SDS011;65471;55.908;37.880;2023-02-28T16:55:50;5.93;;;4.40;;
76589;SDS011;65471;55.908;37.880;2023-02-28T16:58:17;5.85;;;4.97;;
76589;SDS011;65471;55.908;37.880;2023-02-28T17:00:45;4.83;;;4.43;;
76589;SDS011;65471;55.908;37.880;2023-02-28T17:03:18;6.18;;;4.88;;
76589;SDS011;65471;55.908;37.880;2023-02-28T17:05:58;9.93;;;5.07;;
76589;SDS011;65471;55.908;37.880;2023-02-28T17:08:25;8.90;;;5.07;;
76589;SDS011;65471;55.908;37.880;2023-02-28T17:10:52;5.45;;;4.90;;
76589;SDS011;65471;55.908;37.880;2023-02-28T17:13:19;7.25;;;4.75;;
76589;SDS011;65471;55.908;37.880;2023-02-28T17:15:46;4.47;;;4.18;;
76589;SDS011;65471;55.908;37.880;2023-02-28T17:18:14;5.25;;;3.70;;
76589;SDS011;65471;55.908;37.880;2023-02-28T17:20:45;7.22;;;4.22;;
76589;SDS011;65471;55.908;37.880;2023-02-28T17:23:12;2.88;;;2.50;;
76589;SDS011;65471;55.908;37.880;2023-02-28T17:25:39;5.88;;;3.10;;
76589;SDS011;65471;55.908;37.880;2023-02-28T17:28:06;2.72;;;2.55;;
76589;SDS011;65471;55.908;37.880;2023-02-28T17:30:35;3.03;;;2.72;;
76589;SDS011;65471;55.908;37.880;2023-02-28T17:33:02;4.13;;;1.75;;
76589;SDS011;65471;55.908;37.880;2023-02-28T17:35:28;5.47;;;2.20;;
76589;SDS011;65471;55.908;37.880;2023-02-28T17:37:55;3.45;;;2.33;;
76589;SDS011;65471;55.908;37.880;2023-02-28T17:40:22;3.00;;;1.80;;
76589;SDS011;65471;55.908;37.880;2023-02-28T17:42:50;1.80;;;1.70;;
76589;SDS011;65471;55.908;37.880;2023-02-28T17:45:19;1.73;;;1.63;;
76589;SDS011;65471;55.908;37.880;2023-02-28T17:47:47;3.70;;;1.60;;
76589;SDS011;65471;55.908;37.880;2023-02-28T17:50:17;4.35;;;1.73;;
76589;SDS011;65471;55.908;37.880;2023-02-28T17:52:45;3.55;;;1.60;;
76589;SDS011;65471;55.908;37.880;2023-02-28T17:55:16;2.60;;;1.83;;